createdAt,value
2022-12-17T00:02:43.606Z,100609.48
2022-12-17T00:05:30.753Z,100602.88
2022-12-17T00:08:19.242Z,100606.02
2022-12-17T00:11:06.268Z,100611.02
2022-12-17T00:13:53.084Z,100617.49
2022-12-17T00:16:42.036Z,100622.04
2022-12-17T00:19:29.445Z,100627.27
2022-12-17T00:22:16.805Z,100628.67
2022-12-17T00:25:03.843Z,100637.78
2022-12-17T00:27:51.020Z,100640.68
2022-12-17T00:30:38.585Z,100651.33
2022-12-17T00:33:25.853Z,100657.95
2022-12-17T00:36:13.880Z,100660.21
2022-12-17T00:39:00.759Z,100662.89
2022-12-17T00:41:47.742Z,100667.79
2022-12-17T00:44:34.838Z,100667.28
2022-12-17T00:47:21.715Z,100668.36
2022-12-17T00:50:08.583Z,100665.10
2022-12-17T00:52:55.593Z,100663.48
2022-12-17T00:55:43.380Z,100662.26
2022-12-17T00:58:30.543Z,100666.45
2022-12-17T01:01:20.016Z,100665.77
2022-12-17T01:04:07.338Z,100668.58
2022-12-17T01:06:54.644Z,100666.67
2022-12-17T01:09:43.862Z,100671.55
2022-12-17T01:12:31.262Z,100675.80
2022-12-17T01:15:18.364Z,100681.36
2022-12-17T01:18:05.202Z,100687.80
2022-12-17T01:20:52.282Z,100690.17
2022-12-17T01:23:39.571Z,100694.37
2022-12-17T01:26:26.691Z,100702.79
2022-12-17T01:29:16.197Z,100698.55
2022-12-17T01:32:03.204Z,100702.41
2022-12-17T01:34:50.526Z,100708.91
2022-12-17T01:37:37.477Z,100711.59
2022-12-17T01:40:25.135Z,100712.09
2022-12-17T01:43:12.086Z,100706.92
2022-12-17T01:46:08.168Z,100707.12
2022-12-17T01:49:02.042Z,100711.32
2022-12-17T01:51:50.539Z,100714.45
2022-12-17T01:54:38.220Z,100718.78
2022-12-17T01:57:26.942Z,100715.77
2022-12-17T02:00:33.054Z,100718.42
2022-12-17T02:03:20.125Z,100724.35
2022-12-17T02:06:22.743Z,100719.64
2022-12-17T02:09:27.717Z,100715.88
2022-12-17T02:12:14.915Z,100714.45
2022-12-17T02:15:18.608Z,100706.54
2022-12-17T02:18:11.901Z,100704.30
2022-12-17T02:21:25.184Z,100705.08
2022-12-17T02:24:18.542Z,100710.42
2022-12-17T02:27:09.061Z,100714.48
2022-12-17T02:30:21.455Z,100714.09
2022-12-17T02:33:10.572Z,100716.29
2022-12-17T02:36:03.174Z,100714.30
2022-12-17T02:38:52.194Z,100712.20
2022-12-17T02:41:47.947Z,100713.11
2022-12-17T02:44:38.385Z,100712.84
2022-12-17T02:47:48.546Z,100707.73
2022-12-17T02:50:36.494Z,100709.21
2022-12-17T02:53:34.775Z,100714.88
2022-12-17T02:56:22.185Z,100713.44
2022-12-17T02:59:09.054Z,100716.23
2022-12-17T03:01:56.211Z,100716.49
2022-12-17T03:04:43.487Z,100719.48
2022-12-17T03:07:30.737Z,100714.74
2022-12-17T03:10:17.879Z,100711.63
2022-12-17T03:13:04.830Z,100712.44
2022-12-17T03:15:51.895Z,100712.36
2022-12-17T03:18:38.720Z,100715.45
2022-12-17T03:21:25.496Z,100719.95
2022-12-17T03:24:12.416Z,100722.33
2022-12-17T03:26:59.601Z,100725.39
2022-12-17T03:29:46.753Z,100724.45
2022-12-17T03:32:33.653Z,100726.70
2022-12-17T03:35:20.735Z,100728.93
2022-12-17T03:38:07.760Z,100737.17
2022-12-17T03:40:54.678Z,100736.98
2022-12-17T03:43:41.782Z,100731.84
2022-12-17T03:46:28.954Z,100723.83
2022-12-17T03:49:15.963Z,100725.47
2022-12-17T03:52:03.077Z,100731.70
2022-12-17T03:54:50.254Z,100737.62
2022-12-17T03:57:37.547Z,100743.31
2022-12-17T04:00:29.745Z,100738.73
2022-12-17T04:03:16.769Z,100731.21
2022-12-17T04:06:03.795Z,100725.27
2022-12-17T04:08:50.860Z,100729.37
2022-12-17T04:11:38.283Z,100733.98
2022-12-17T04:14:25.118Z,100740.91
2022-12-17T04:17:12.186Z,100738.55
2022-12-17T04:19:59.083Z,100741.89
2022-12-17T04:22:46.412Z,100743.33
2022-12-17T04:25:33.387Z,100745.33
2022-12-17T04:28:20.581Z,100747.95
2022-12-17T04:31:07.768Z,100755.38
2022-12-17T04:33:54.926Z,100758.63
2022-12-17T04:36:41.797Z,100763.27
2022-12-17T04:39:28.731Z,100776.13
2022-12-17T04:42:15.580Z,100777.16
2022-12-17T04:45:02.548Z,100785.44
2022-12-17T04:47:49.454Z,100792.52
2022-12-17T04:50:36.418Z,100794.02
2022-12-17T04:53:25.894Z,100802.18
2022-12-17T04:56:15.875Z,100811.25
2022-12-17T04:59:02.958Z,100816.77
2022-12-17T05:01:50.091Z,100820.08
2022-12-17T05:04:37.423Z,100824.23
2022-12-17T05:07:24.493Z,100826.13
2022-12-17T05:10:11.765Z,100828.61
2022-12-17T05:12:58.938Z,100831.10
2022-12-17T05:15:51.363Z,100830.68
2022-12-17T05:18:40.029Z,100829.16
2022-12-17T05:21:30.574Z,100826.74
2022-12-17T05:24:20.533Z,100825.73
2022-12-17T05:27:07.588Z,100828.83
2022-12-17T05:29:54.370Z,100828.89
2022-12-17T05:32:41.428Z,100831.74
2022-12-17T05:35:29.036Z,100833.63
2022-12-17T05:38:23.003Z,100836.22
2022-12-17T05:41:11.046Z,100838.23
2022-12-17T05:43:58.053Z,100840.14
2022-12-17T05:46:46.487Z,100846.80
2022-12-17T05:49:33.489Z,100852.16
2022-12-17T05:52:20.746Z,100855.41
2022-12-17T05:55:07.553Z,100857.52
2022-12-17T05:57:56.541Z,100862.95
2022-12-17T06:00:44.137Z,100864.67
2022-12-17T06:03:31.204Z,100863.39
2022-12-17T06:06:18.262Z,100866.88
2022-12-17T06:09:05.302Z,100869.98
2022-12-17T06:11:53.928Z,100866.63
2022-12-17T06:14:42.497Z,100873.42
2022-12-17T06:17:29.565Z,100876.52
2022-12-17T06:20:17.134Z,100878.98
2022-12-17T06:23:04.262Z,100879.84
2022-12-17T06:25:51.071Z,100882.27
2022-12-17T06:28:38.454Z,100881.52
2022-12-17T06:31:25.536Z,100884.58
2022-12-17T06:34:12.601Z,100885.02
2022-12-17T06:36:59.811Z,100888.33
2022-12-17T06:39:46.495Z,100894.83
2022-12-17T06:42:33.401Z,100894.30
2022-12-17T06:45:20.346Z,100895.09
2022-12-17T06:48:07.715Z,100897.81
2022-12-17T06:50:54.489Z,100901.40
2022-12-17T06:53:41.457Z,100904.16
2022-12-17T06:56:28.406Z,100908.65
2022-12-17T06:59:15.347Z,100916.90
2022-12-17T07:02:02.307Z,100920.42
2022-12-17T07:04:49.363Z,100919.68
2022-12-17T07:07:36.421Z,100923.11
2022-12-17T07:10:23.918Z,100927.60
2022-12-17T07:13:10.973Z,100934.33
2022-12-17T07:15:57.934Z,100939.52
2022-12-17T07:18:44.786Z,100944.60
2022-12-17T07:21:31.817Z,100945.42
2022-12-17T07:24:19.011Z,100951.35
2022-12-17T07:27:06.081Z,100957.17
2022-12-17T07:29:53.257Z,100961.10
2022-12-17T07:32:41.219Z,100962.39
2022-12-17T07:35:28.710Z,100964.89
2022-12-17T07:38:20.995Z,100968.05
2022-12-17T07:41:07.998Z,100971.42
2022-12-17T07:43:54.888Z,100972.73
2022-12-17T07:46:42.085Z,100971.29
2022-12-17T07:49:28.975Z,100971.92
2022-12-17T07:52:16.030Z,100975.60
2022-12-17T07:55:03.011Z,100976.93
2022-12-17T07:57:50.022Z,100984.02
2022-12-17T08:00:37.220Z,100991.93
2022-12-17T08:03:24.358Z,100992.36
2022-12-17T08:06:11.945Z,100995.63
2022-12-17T08:08:58.882Z,100996.51
2022-12-17T08:11:46.504Z,101001.75
2022-12-17T08:14:33.502Z,101004.66
2022-12-17T08:17:20.367Z,101008.30
2022-12-17T08:20:07.597Z,101016.66
2022-12-17T08:22:54.905Z,101019.23
2022-12-17T08:25:41.812Z,101026.78
2022-12-17T08:31:36.451Z,101027.90
2022-12-17T08:34:23.817Z,101024.71
2022-12-17T08:37:10.766Z,101031.08
2022-12-17T08:39:57.646Z,101031.96
2022-12-17T08:42:45.173Z,101030.23
2022-12-17T08:45:32.218Z,101029.23
2022-12-17T08:48:27.075Z,101033.09
2022-12-17T08:51:13.994Z,101032.59
2022-12-17T08:54:00.944Z,101031.54
2022-12-17T08:56:47.954Z,101035.96
2022-12-17T08:59:35.135Z,101040.27
2022-12-17T09:02:22.322Z,101042.76
2022-12-17T09:05:09.741Z,101043.72
2022-12-17T09:07:56.953Z,101047.45
2022-12-17T09:10:44.139Z,101050.75
2022-12-17T09:13:30.951Z,101053.87
2022-12-17T09:16:18.204Z,101057.30
2022-12-17T09:19:05.129Z,101058.71
2022-12-17T09:21:52.105Z,101066.55
2022-12-17T09:24:39.388Z,101073.20
2022-12-17T09:27:26.527Z,101071.77
2022-12-17T09:30:13.398Z,101069.00
2022-12-17T09:33:00.617Z,101070.19
2022-12-17T09:35:48.122Z,101072.91
2022-12-17T09:38:36.371Z,101072.05
2022-12-17T09:42:00.376Z,101077.04
2022-12-17T09:45:15.206Z,101082.98
2022-12-17T09:48:19.613Z,101082.13
2022-12-17T09:51:10.469Z,101078.37
2022-12-17T09:54:10.888Z,101080.66
2022-12-17T09:57:01.267Z,101085.60
2022-12-17T09:59:53.227Z,101085.29
2022-12-17T10:02:48.231Z,101081.73
2022-12-17T10:05:42.735Z,101087.14
2022-12-17T10:08:43.562Z,101091.64
2022-12-17T10:11:40.684Z,101099.31
2022-12-17T10:14:38.784Z,101110.94
2022-12-17T10:17:42.053Z,101109.05
2022-12-17T10:20:49.613Z,101113.83
2022-12-17T10:23:48.321Z,101117.55
2022-12-17T10:26:39.307Z,101121.77
2022-12-17T10:29:47.445Z,101120.67
2022-12-17T10:32:35.433Z,101126.02
2022-12-17T10:35:31.130Z,101130.30
2022-12-17T10:38:38.103Z,101128.55
2022-12-17T10:41:40.970Z,101129.96
2022-12-17T10:44:46.471Z,101131.08
2022-12-17T10:47:41.630Z,101138.47
2022-12-17T10:50:33.375Z,101140.76
2022-12-17T10:53:21.834Z,101144.32
2022-12-17T10:56:15.620Z,101142.69
2022-12-17T10:59:08.460Z,101145.02
2022-12-17T11:01:59.147Z,101139.01
2022-12-17T11:04:49.665Z,101146.47
2022-12-17T11:07:42.901Z,101147.48
2022-12-17T11:10:42.900Z,101146.00
2022-12-17T11:13:40.615Z,101150.80
2022-12-17T11:16:45.096Z,101151.33
2022-12-17T11:19:31.975Z,101153.75
2022-12-17T11:22:58.562Z,101150.91
2022-12-17T11:26:23.757Z,101152.11
2022-12-17T11:29:10.946Z,101150.70
2022-12-17T11:32:18.348Z,101148.52
2022-12-17T11:35:22.230Z,101147.83
2022-12-17T11:38:45.066Z,101150.58
2022-12-17T11:41:42.016Z,101147.87
2022-12-17T11:44:36.660Z,101158.92
2022-12-17T11:47:57.489Z,101163.48
2022-12-17T11:51:00.025Z,101166.34
2022-12-17T11:54:16.120Z,101166.55
2022-12-17T11:57:19.725Z,101174.03
2022-12-17T12:00:35.461Z,101180.01
2022-12-17T12:03:28.774Z,101186.14
2022-12-17T12:06:23.086Z,101191.62
2022-12-17T12:09:22.328Z,101197.13
2022-12-17T12:12:34.533Z,101198.93
2022-12-17T12:15:37.450Z,101203.44
2022-12-17T12:18:54.289Z,101210.13
2022-12-17T12:21:56.830Z,101208.02
2022-12-17T12:25:13.513Z,101209.33
2022-12-17T12:28:23.342Z,101207.23
2022-12-17T12:31:19.758Z,101210.85
2022-12-17T12:34:18.083Z,101210.94
2022-12-17T12:37:05.423Z,101208.86
2022-12-17T12:40:17.500Z,101210.96
2022-12-17T12:43:07.820Z,101211.38
2022-12-17T12:46:20.844Z,101218.48
2022-12-17T12:49:12.498Z,101222.11
2022-12-17T12:52:00.186Z,101228.11
2022-12-17T12:55:09.345Z,101226.92
2022-12-17T12:58:18.844Z,101235.45
2022-12-17T13:01:06.013Z,101241.75
2022-12-17T13:03:55.972Z,101244.83
2022-12-17T13:06:49.316Z,101243.23
2022-12-17T13:09:18.486Z,101252.11
2022-12-17T13:12:05.310Z,101254.83
2022-12-17T13:14:42.841Z,101260.98
2022-12-17T13:17:17.171Z,101261.35
2022-12-17T13:20:02.129Z,101267.14
2022-12-17T13:22:34.253Z,101266.54
2022-12-17T13:25:20.806Z,101271.27
2022-12-17T13:27:50.355Z,101271.80
2022-12-17T13:30:18.791Z,101271.47
2022-12-17T13:33:30.171Z,101270.98
2022-12-17T13:36:29.766Z,101271.05
2022-12-17T13:39:07.421Z,101274.35
2022-12-17T13:41:38.934Z,101278.84
2022-12-17T13:44:40.663Z,101285.99
2022-12-17T13:47:25.096Z,101288.71
2022-12-17T13:50:32.368Z,101296.08
2022-12-17T13:52:45.205Z,101298.13
2022-12-17T13:55:26.302Z,101300.86
2022-12-17T13:57:55.531Z,101308.25
2022-12-17T14:00:31.348Z,101311.65
2022-12-17T14:03:11.011Z,101317.67
2022-12-17T14:05:43.990Z,101319.61
2022-12-17T14:08:17.678Z,101321.73
2022-12-17T14:11:13.444Z,101326.48
2022-12-17T14:13:44.061Z,101333.33
2022-12-17T14:16:20.006Z,101338.39
2022-12-17T14:18:57.380Z,101340.23
2022-12-17T14:21:28.335Z,101341.69
2022-12-17T14:23:58.132Z,101342.08
2022-12-17T14:26:26.813Z,101342.93
2022-12-17T14:28:56.250Z,101348.66
2022-12-17T14:31:30.370Z,101352.30
2022-12-17T14:34:11.993Z,101355.32
2022-12-17T14:36:43.966Z,101359.17
2022-12-17T14:39:32.798Z,101362.25
2022-12-17T14:42:32.768Z,101362.73
2022-12-17T14:45:17.049Z,101364.01
2022-12-17T14:48:00.270Z,101371.67
2022-12-17T14:50:37.842Z,101380.34
2022-12-17T14:53:35.743Z,101384.52
2022-12-17T14:56:04.207Z,101389.16
2022-12-17T14:58:32.704Z,101390.64
2022-12-17T15:01:12.908Z,101389.27
2022-12-17T15:03:44.426Z,101389.52
2022-12-17T15:06:20.735Z,101398.23
2022-12-17T15:08:53.444Z,101400.34
2022-12-17T15:11:23.040Z,101404.16
2022-12-17T15:13:56.272Z,101405.72
2022-12-17T15:16:25.287Z,101407.11
2022-12-17T15:18:53.912Z,101407.92
2022-12-17T15:21:24.141Z,101405.59
2022-12-17T15:23:53.269Z,101402.81
2022-12-17T15:26:22.111Z,101399.04
2022-12-17T15:28:50.713Z,101400.80
2022-12-17T15:31:24.449Z,101400.66
2022-12-17T15:33:54.032Z,101403.10
2022-12-17T15:36:23.119Z,101399.69
2022-12-17T15:38:52.021Z,101401.38
2022-12-17T15:41:39.461Z,101400.31
2022-12-17T15:44:08.084Z,101404.98
2022-12-17T15:46:36.779Z,101400.83
2022-12-17T15:49:05.347Z,101401.39
2022-12-17T15:51:34.261Z,101409.35
2022-12-17T15:54:02.921Z,101410.27
2022-12-17T15:56:35.143Z,101412.84
2022-12-17T15:59:03.960Z,101418.60
2022-12-17T16:01:32.750Z,101419.30
2022-12-17T16:04:01.586Z,101426.19
2022-12-17T16:06:31.352Z,101432.36
2022-12-17T16:09:00.756Z,101433.79
2022-12-17T16:11:29.297Z,101432.80
2022-12-17T16:13:58.084Z,101435.12
2022-12-17T16:16:27.596Z,101436.23
2022-12-17T16:18:57.023Z,101441.48
2022-12-17T16:21:25.573Z,101440.21
2022-12-17T16:23:54.108Z,101436.05
2022-12-17T16:26:23.018Z,101445.23
2022-12-17T16:28:52.434Z,101450.59
2022-12-17T16:31:22.143Z,101455.34
2022-12-17T16:33:51.012Z,101462.98
2022-12-17T16:36:21.953Z,101464.54
2022-12-17T16:38:54.554Z,101463.80
2022-12-17T16:41:23.907Z,101462.67
2022-12-17T16:43:54.117Z,101459.29
2022-12-17T16:46:26.673Z,101459.48
2022-12-17T16:48:58.413Z,101461.71
2022-12-17T16:51:29.738Z,101465.05
2022-12-17T16:54:04.063Z,101462.10
2022-12-17T16:56:39.485Z,101466.70
2022-12-17T16:59:10.805Z,101474.12
2022-12-17T17:01:41.526Z,101476.08
2022-12-17T17:04:10.220Z,101477.04
2022-12-17T17:06:47.507Z,101478.56
2022-12-17T17:09:16.998Z,101477.58
2022-12-17T17:11:50.939Z,101482.77
2022-12-17T17:14:20.319Z,101484.29
2022-12-17T17:16:49.170Z,101487.58
2022-12-17T17:19:19.811Z,101494.59
2022-12-17T17:21:54.396Z,101502.69
2022-12-17T17:24:25.804Z,101507.83
2022-12-17T17:26:55.600Z,101507.30
2022-12-17T17:29:24.342Z,101512.83
2022-12-17T17:32:09.681Z,101512.69
2022-12-17T17:34:40.379Z,101521.51
2022-12-17T17:37:09.138Z,101527.52
2022-12-17T17:39:37.993Z,101533.29
2022-12-17T17:42:06.787Z,101535.14
2022-12-17T17:44:35.983Z,101528.91
2022-12-17T17:47:08.231Z,101528.59
2022-12-17T17:49:36.828Z,101534.20
2022-12-17T17:52:10.637Z,101535.08
2022-12-17T17:54:40.676Z,101536.84
2022-12-17T17:57:10.101Z,101538.84
2022-12-17T17:59:42.736Z,101540.95
2022-12-17T18:02:11.699Z,101541.52
2022-12-17T18:04:40.406Z,101539.86
2022-12-17T18:07:25.758Z,101541.97
2022-12-17T18:09:55.877Z,101553.34
2022-12-17T18:12:43.119Z,101556.79
2022-12-17T18:15:14.789Z,101562.70
2022-12-17T18:17:51.653Z,101567.11
2022-12-17T18:20:20.794Z,101577.71
2022-12-17T18:22:50.846Z,101582.18
2022-12-17T18:25:19.677Z,101585.41
2022-12-17T18:27:48.927Z,101586.95
2022-12-17T18:30:17.813Z,101589.44
2022-12-17T18:32:49.697Z,101594.73
2022-12-17T18:35:18.590Z,101591.97
2022-12-17T18:37:47.355Z,101588.68
2022-12-17T18:40:15.773Z,101588.58
2022-12-17T18:43:03.673Z,101588.90
2022-12-17T18:45:32.312Z,101590.92
2022-12-17T18:48:01.352Z,101597.11
2022-12-17T18:50:30.158Z,101599.27
2022-12-17T18:52:58.494Z,101601.79
2022-12-17T18:55:27.306Z,101603.77
2022-12-17T18:57:56.440Z,101605.00
2022-12-17T19:00:25.034Z,101609.80
2022-12-17T19:02:53.949Z,101609.71
2022-12-17T19:05:23.516Z,101615.98
2022-12-17T19:07:52.587Z,101616.92
2022-12-17T19:10:21.825Z,101614.98
2022-12-17T19:12:50.618Z,101618.77
2022-12-17T19:15:19.969Z,101621.28
2022-12-17T19:17:51.694Z,101626.83
2022-12-17T19:20:20.593Z,101631.24
2022-12-17T19:22:49.568Z,101629.83
2022-12-17T19:25:18.793Z,101634.36
2022-12-17T19:27:49.509Z,101633.27
2022-12-17T19:30:18.309Z,101639.16
2022-12-17T19:32:46.853Z,101638.10
2022-12-17T19:35:15.310Z,101642.33
2022-12-17T19:37:43.950Z,101643.32
2022-12-17T19:40:13.508Z,101645.92
2022-12-17T19:42:44.035Z,101647.05
2022-12-17T19:45:12.794Z,101647.50
2022-12-17T19:47:41.842Z,101648.20
2022-12-17T19:50:11.168Z,101654.66
2022-12-17T19:52:39.746Z,101657.72
2022-12-17T19:55:10.976Z,101661.42
2022-12-17T19:57:39.768Z,101665.41
2022-12-17T20:00:12.874Z,101665.38
2022-12-17T20:02:41.339Z,101664.31
2022-12-17T20:05:11.041Z,101668.84
2022-12-17T20:07:40.979Z,101671.16
2022-12-17T20:10:10.277Z,101676.16
2022-12-17T20:12:40.498Z,101676.38
2022-12-17T20:15:10.147Z,101679.63
2022-12-17T20:17:41.303Z,101680.42
2022-12-17T20:20:11.321Z,101683.48
2022-12-17T20:22:41.502Z,101684.75
2022-12-17T20:25:12.349Z,101687.72
2022-12-17T20:27:42.397Z,101685.35
2022-12-17T20:30:13.113Z,101681.86
2022-12-17T20:32:42.729Z,101685.73
2022-12-17T20:35:11.592Z,101689.50
2022-12-17T20:37:41.677Z,101694.69
2022-12-17T20:40:11.192Z,101701.27
2022-12-17T20:42:39.678Z,101706.34
2022-12-17T20:45:09.841Z,101704.94
2022-12-17T20:47:38.608Z,101709.78
2022-12-17T20:50:08.370Z,101710.37
2022-12-17T20:52:38.105Z,101710.63
2022-12-17T20:55:07.720Z,101710.41
2022-12-17T20:57:36.928Z,101712.66
2022-12-17T21:00:06.803Z,101716.91
2022-12-17T21:02:37.092Z,101722.10
2022-12-17T21:05:06.817Z,101731.06
2022-12-17T21:07:35.868Z,101733.48
2022-12-17T21:10:05.019Z,101732.66
2022-12-17T21:12:54.076Z,101735.38
2022-12-17T21:15:23.197Z,101733.88
2022-12-17T21:17:52.603Z,101736.80
2022-12-17T21:20:22.153Z,101741.66
2022-12-17T21:22:51.198Z,101746.09
2022-12-17T21:25:19.768Z,101743.81
2022-12-17T21:27:48.262Z,101749.14
2022-12-17T21:30:16.761Z,101743.35
2022-12-17T21:32:45.458Z,101740.66
2022-12-17T21:35:16.169Z,101742.53
2022-12-17T21:37:46.591Z,101740.65
2022-12-17T21:40:15.791Z,101745.38
2022-12-17T21:43:02.302Z,101751.31
2022-12-17T21:45:39.635Z,101759.02
2022-12-17T21:48:11.351Z,101764.04
2022-12-17T21:50:45.673Z,101770.30
2022-12-17T21:53:15.302Z,101773.36
2022-12-17T21:55:44.353Z,101770.77
2022-12-17T21:58:13.473Z,101770.56
2022-12-17T22:00:43.030Z,101775.44
2022-12-17T22:03:11.411Z,101775.58
2022-12-17T22:05:40.041Z,101774.55
2022-12-17T22:08:08.629Z,101777.23
2022-12-17T22:10:47.495Z,101780.23
2022-12-17T22:13:35.578Z,101786.16
2022-12-17T22:16:07.758Z,101795.70
2022-12-17T22:18:36.386Z,101795.98
2022-12-17T22:21:05.011Z,101797.27
2022-12-17T22:23:33.478Z,101800.58
2022-12-17T22:26:02.209Z,101805.76
2022-12-17T22:28:30.782Z,101808.84
2022-12-17T22:31:23.369Z,101810.15
2022-12-17T22:34:10.323Z,101808.09
2022-12-17T22:40:41.867Z,101809.39
2022-12-17T22:44:30.753Z,101812.85
2022-12-17T22:44:35.976Z,101820.36
2022-12-17T22:45:26.625Z,101818.90
2022-12-17T22:47:55.376Z,101825.00
2022-12-17T22:50:28.531Z,101826.55
2022-12-17T22:53:04.777Z,101826.85
2022-12-17T22:55:34.896Z,101824.05
2022-12-17T22:58:04.119Z,101823.23
2022-12-17T23:00:35.029Z,101823.32
2022-12-17T23:03:04.224Z,101824.48
2022-12-17T23:05:33.714Z,101828.87
2022-12-17T23:08:02.159Z,101827.71
2022-12-17T23:10:30.784Z,101828.92
2022-12-17T23:12:59.143Z,101837.60
2022-12-17T23:15:38.664Z,101843.02
2022-12-17T23:18:08.181Z,101848.94
2022-12-17T23:20:37.411Z,101853.25
2022-12-17T23:23:05.737Z,101850.29
2022-12-17T23:25:34.203Z,101845.39
2022-12-17T23:28:02.515Z,101840.40
2022-12-17T23:30:31.142Z,101843.09
2022-12-17T23:32:59.423Z,101845.50
2022-12-17T23:35:27.966Z,101853.61
2022-12-17T23:37:56.251Z,101854.52
2022-12-17T23:40:25.562Z,101852.12
2022-12-17T23:42:54.109Z,101855.38
2022-12-17T23:45:22.390Z,101856.30
2022-12-17T23:47:50.751Z,101863.70
2022-12-17T23:50:19.161Z,101869.82
2022-12-17T23:52:47.567Z,101875.41
2022-12-17T23:55:16.075Z,101874.70
2022-12-17T23:57:44.433Z,101874.98
